LIED

Details ICAO LIED (DCI)
Name DECIMOMANNU
Region Italy
Timezone Europe/Rome (UTC+1.0)
Plans Departing 6
Arriving 10
Stats Elevation 100 ft / 30 m (AMSL)
Location 39.353939° 8.972494°
Runways 2
Magnetic Variation 2.203° E
Sunrise 2017-02-20 06:11:04 UTC / 2017-02-20 07:11:04 Local
Sunset 2017-02-20 17:07:32 UTC / 2017-02-20 18:07:32 Local
Advertisement - Login to hide

Runways

ID Width Length Bearing (true) Bearing (mag) Surface Threshold Offset Overrun Length
17L 148 ft / 45 m 9,799 ft / 2,987 m 167.21° 165.01° Asphalt 494 ft / 151 m 0 ft / 0 m
17R 74 ft / 23 m 8,580 ft / 2,615 m 167.00° 164.80° Asphalt 0 ft / 0 m 0 ft / 0 m
35L 74 ft / 23 m 8,580 ft / 2,615 m 347.00° 344.80° Asphalt 0 ft / 0 m 0 ft / 0 m
35R 148 ft / 45 m 9,799 ft / 2,987 m 347.21° 345.01° Asphalt 495 ft / 151 m 0 ft / 0 m

Map

Weather

Temperature
Clouds and Precipitation
Forecast for 2017-02-20 12:00 UTC. Updated an hour ago
Winds

METAR

LIED 200755Z 33002KT CAVOK 05/03 Q1024 RMK SKC VIS MIN 9999 WIND THR35 31002KT WIND THR17 /////KT BLU

TAF

Not found

Frequencies

Tower 122.10 MHz TWR
Approach 118.40 MHz CAGLIARI APP
Approach 118.75 MHz CAGLIARI APP
Warning: Do not use this data for real-world aviation or navigation. No guarantee of current accuracy is given.